createdAt,value
2018-05-12T00:03:44.583Z,101095.50
2018-05-12T00:08:40.501Z,101100.53
2018-05-12T00:13:35.845Z,101097.59
2018-05-12T00:18:31.634Z,101104.11
2018-05-12T00:23:26.216Z,101095.27
2018-05-12T00:28:20.568Z,101094.81
2018-05-12T00:33:21.640Z,101089.22
2018-05-12T00:38:17.157Z,101090.28
2018-05-12T00:43:11.521Z,101088.13
2018-05-12T00:48:05.890Z,101085.81
2018-05-12T00:53:00.238Z,101079.96
2018-05-12T00:57:54.597Z,101082.40
2018-05-12T01:02:48.938Z,101069.66
2018-05-12T01:07:43.555Z,101070.78
2018-05-12T01:12:38.262Z,101066.94
2018-05-12T01:17:32.770Z,101071.59
2018-05-12T01:22:27.125Z,101070.20
2018-05-12T01:27:21.487Z,101064.61
2018-05-12T01:32:15.825Z,101058.02
2018-05-12T01:37:10.945Z,101061.91
2018-05-12T01:42:06.046Z,101061.05
2018-05-12T01:47:01.257Z,101058.73
2018-05-12T01:51:55.825Z,101059.59
2018-05-12T01:56:50.202Z,101060.99
2018-05-12T02:01:44.539Z,101066.31
2018-05-12T02:06:39.144Z,101062.59
2018-05-12T02:11:33.664Z,101061.38
2018-05-12T02:16:28.123Z,101058.24
2018-05-12T02:21:22.481Z,101063.32
2018-05-12T02:26:18.354Z,101054.69
2018-05-12T02:31:13.447Z,101064.27
2018-05-12T02:36:07.890Z,101062.38
2018-05-12T02:41:03.230Z,101058.75
2018-05-12T02:45:57.587Z,101057.48
2018-05-12T02:50:52.713Z,101058.05
2018-05-12T02:55:49.602Z,101059.81
2018-05-12T03:00:44.896Z,101060.89
2018-05-12T03:05:39.453Z,101061.70
2018-05-12T03:10:33.813Z,101067.89
2018-05-12T03:15:28.726Z,101065.11
2018-05-12T03:20:23.858Z,101061.75
2018-05-12T03:25:19.383Z,101055.84
2018-05-12T03:30:14.511Z,101062.38
2018-05-12T03:35:08.922Z,101062.73
2018-05-12T03:40:03.263Z,101062.04
2018-05-12T03:44:57.378Z,101061.64
2018-05-12T03:49:51.741Z,101068.58
2018-05-12T03:54:46.105Z,101073.30
2018-05-12T03:59:41.380Z,101069.05
2018-05-12T04:04:53.485Z,101078.70
2018-05-12T04:10:05.045Z,101074.53
2018-05-12T04:15:00.199Z,101075.89
2018-05-12T04:19:54.890Z,101082.72
2018-05-12T04:24:50.013Z,101075.08
2018-05-12T04:29:45.151Z,101069.06
2018-05-12T04:34:39.568Z,101072.25
2018-05-12T04:39:36.877Z,101072.25
2018-05-12T04:44:31.226Z,101068.02
2018-05-12T04:49:25.582Z,101070.92
2018-05-12T04:54:20.282Z,101068.58
2018-05-12T04:59:15.761Z,101070.87
2018-05-12T05:04:10.099Z,101072.41
2018-05-12T05:09:03.782Z,101067.89
2018-05-12T05:13:59.074Z,101072.28
2018-05-12T05:18:53.461Z,101083.20
2018-05-12T05:23:48.584Z,101083.25
2018-05-12T05:28:43.698Z,101081.78
2018-05-12T05:33:39.230Z,101085.31
2018-05-12T05:38:35.016Z,101075.59
2018-05-12T05:43:29.378Z,101084.34
2018-05-12T05:48:23.753Z,101081.94
2018-05-12T05:53:18.359Z,101081.59
2018-05-12T05:58:12.726Z,101077.59
2018-05-12T06:03:07.098Z,101082.43
2018-05-12T06:08:01.529Z,101081.27
2018-05-12T06:12:55.893Z,101075.92
2018-05-12T06:17:51.020Z,101075.78
2018-05-12T06:22:46.492Z,101073.98
2018-05-12T06:27:41.809Z,101067.67
2018-05-12T06:32:36.441Z,101076.67
2018-05-12T06:37:31.282Z,101078.48
2018-05-12T06:42:26.053Z,101079.13
2018-05-12T06:47:21.278Z,101079.98
2018-05-12T06:52:15.926Z,101074.92
2018-05-12T06:57:10.705Z,101065.16
2018-05-12T07:02:05.338Z,101075.37
2018-05-12T07:07:00.239Z,101067.25
2018-05-12T07:11:54.848Z,101058.16
2018-05-12T07:16:49.714Z,101065.48
2018-05-12T07:21:45.269Z,101059.11
2018-05-12T07:26:40.029Z,101053.83
2018-05-12T07:31:34.664Z,101056.95
2018-05-12T07:36:30.054Z,101061.24
2018-05-12T07:41:25.638Z,101058.90
2018-05-12T07:46:21.881Z,101055.39
2018-05-12T07:51:17.284Z,101059.00
2018-05-12T07:56:11.898Z,101047.52
2018-05-12T08:01:08.204Z,101047.31
2018-05-12T08:06:03.098Z,101042.28
2018-05-12T08:10:58.022Z,101040.29
2018-05-12T08:15:52.668Z,101028.59
2018-05-12T08:20:47.349Z,101029.18
2018-05-12T08:25:42.098Z,101021.31
2018-05-12T08:30:36.724Z,101018.32
2018-05-12T08:35:32.234Z,101015.68
2018-05-12T08:40:28.368Z,101008.55
2018-05-12T08:45:23.162Z,101000.84
2018-05-12T08:50:18.027Z,101003.84
2018-05-12T08:55:13.500Z,101002.98
2018-05-12T09:00:08.497Z,100990.09
2018-05-12T09:05:03.116Z,100993.70
2018-05-12T09:09:57.739Z,100977.62
2018-05-12T09:14:52.449Z,100975.80
2018-05-12T09:19:47.076Z,100963.35
2018-05-12T09:24:41.955Z,100963.88
2018-05-12T09:29:36.568Z,100958.03
2018-05-12T09:34:31.204Z,100943.45
2018-05-12T09:39:25.839Z,100950.72
2018-05-12T09:44:20.868Z,100942.74
2018-05-12T09:49:16.260Z,100928.85
2018-05-12T09:54:10.896Z,100921.94
2018-05-12T09:59:06.284Z,100911.05
2018-05-12T10:04:00.674Z,100910.61
2018-05-12T10:08:55.304Z,100906.70
2018-05-12T10:13:50.093Z,100903.95
2018-05-12T10:18:44.737Z,100903.80
2018-05-12T10:23:40.334Z,100894.14
2018-05-12T10:28:35.112Z,100894.36
2018-05-12T10:33:29.512Z,100892.95
2018-05-12T10:38:23.933Z,100890.98
2018-05-12T10:43:18.302Z,100889.57
2018-05-12T10:48:12.672Z,100885.31
2018-05-12T10:53:08.050Z,100870.28
2018-05-12T10:58:02.515Z,100863.79
2018-05-12T11:02:57.750Z,100860.67
2018-05-12T11:07:52.118Z,100842.55
2018-05-12T11:12:46.904Z,100843.45
2018-05-12T11:17:41.807Z,100842.55
2018-05-12T11:22:36.189Z,100834.95
2018-05-12T11:27:30.553Z,100831.56
2018-05-12T11:32:24.909Z,100834.66
2018-05-12T11:37:19.488Z,100813.73
2018-05-12T11:42:14.866Z,100802.10
2018-05-12T11:47:10.278Z,100796.70
2018-05-12T11:52:04.686Z,100796.12
2018-05-12T11:56:59.352Z,100802.72
2018-05-12T12:01:53.475Z,100796.69
2018-05-12T12:06:47.920Z,100782.91
2018-05-12T12:11:42.501Z,100792.77
2018-05-12T12:16:37.043Z,100783.08
2018-05-12T12:21:31.944Z,100780.97
2018-05-12T12:26:26.404Z,100775.07
2018-05-12T12:31:20.944Z,100770.59
2018-05-12T12:36:15.124Z,100761.80
2018-05-12T12:41:11.174Z,100765.06
2018-05-12T12:46:05.753Z,100762.69
2018-05-12T12:51:00.398Z,100752.72
2018-05-12T12:55:54.759Z,100746.57
2018-05-12T13:00:49.645Z,100739.87
2018-05-12T13:05:44.310Z,100734.20
2018-05-12T13:10:38.899Z,100734.38
2018-05-12T13:15:33.354Z,100729.41
2018-05-12T13:20:27.747Z,100722.88
2018-05-12T13:25:22.126Z,100718.92
2018-05-12T13:30:16.532Z,100712.30
2018-05-12T13:35:10.973Z,100709.77
2018-05-12T13:40:05.829Z,100704.90
2018-05-12T13:45:00.171Z,100701.76
2018-05-12T13:49:55.339Z,100688.91
2018-05-12T13:54:50.492Z,100692.39
2018-05-12T13:59:45.079Z,100678.56
2018-05-12T14:04:39.527Z,100677.88
2018-05-12T14:09:33.884Z,100679.53
2018-05-12T14:14:28.373Z,100671.09
2018-05-12T14:19:23.580Z,100678.64
2018-05-12T14:24:18.040Z,100682.22
2018-05-12T14:29:12.401Z,100668.44
2018-05-12T14:34:08.298Z,100666.55
2018-05-12T14:39:02.761Z,100658.95
2018-05-12T14:43:57.534Z,100666.23
2018-05-12T14:48:51.882Z,100657.12
2018-05-12T14:53:48.354Z,100646.41
2018-05-12T14:58:42.718Z,100644.63
2018-05-12T15:03:37.842Z,100646.80
2018-05-12T15:08:32.961Z,100634.11
2018-05-12T15:13:28.302Z,100630.09
2018-05-12T15:18:22.660Z,100631.88
2018-05-12T15:23:17.058Z,100626.63
2018-05-12T15:28:11.514Z,100618.27
2018-05-12T15:33:06.135Z,100615.55
2018-05-12T15:38:00.613Z,100607.11
2018-05-12T15:42:55.787Z,100607.80
2018-05-12T15:47:50.171Z,100595.34
2018-05-12T15:52:44.547Z,100586.52
2018-05-12T15:57:39.080Z,100581.70
2018-05-12T16:02:33.447Z,100584.20
2018-05-12T16:07:28.911Z,100577.85
2018-05-12T16:12:23.494Z,100567.44
2018-05-12T16:17:18.690Z,100562.10
2018-05-12T16:22:13.488Z,100554.17
2018-05-12T16:27:08.363Z,100554.02
2018-05-12T16:32:02.783Z,100543.50
2018-05-12T16:36:57.164Z,100545.05
2018-05-12T16:41:51.565Z,100535.39
2018-05-12T16:46:45.749Z,100527.52
2018-05-12T16:51:40.479Z,100527.44
2018-05-12T16:56:35.204Z,100517.89
2018-05-12T17:01:29.628Z,100523.66
2018-05-12T17:06:24.307Z,100515.11
2018-05-12T17:11:18.934Z,100516.37
2018-05-12T17:16:13.342Z,100514.39
2018-05-12T17:21:08.070Z,100505.34
2018-05-12T17:26:02.477Z,100504.05
2018-05-12T17:30:57.048Z,100504.75
2018-05-12T17:35:51.611Z,100499.31
2018-05-12T17:40:46.904Z,100502.08
2018-05-12T17:45:41.370Z,100500.24
2018-05-12T17:50:35.721Z,100491.27
2018-05-12T17:55:30.863Z,100497.30
2018-05-12T18:00:26.103Z,100491.54
2018-05-12T18:05:20.524Z,100488.03
2018-05-12T18:10:14.877Z,100488.61
2018-05-12T18:15:09.338Z,100496.01
2018-05-12T18:20:03.476Z,100490.32
2018-05-12T18:24:58.613Z,100483.99
2018-05-12T18:29:53.732Z,100479.25
2018-05-12T18:34:48.958Z,100480.38
2018-05-12T18:39:44.080Z,100476.30
2018-05-12T18:44:39.238Z,100471.80
2018-05-12T18:49:33.601Z,100485.86
2018-05-12T18:54:29.023Z,100492.13
2018-05-12T18:59:24.337Z,100488.16
2018-05-12T19:04:18.694Z,100486.84
2018-05-12T19:09:13.078Z,100486.83
2018-05-12T19:14:07.514Z,100486.45
2018-05-12T19:19:01.899Z,100493.41
2018-05-12T19:23:56.286Z,100491.19
2018-05-12T19:28:50.854Z,100495.59
2018-05-12T19:33:45.546Z,100490.83
2018-05-12T19:38:40.172Z,100490.55
2018-05-12T19:43:34.535Z,100491.78
2018-05-12T19:48:30.513Z,100486.84
2018-05-12T19:53:24.959Z,100492.23
2018-05-12T19:58:19.330Z,100487.81
2018-05-12T20:03:14.497Z,100485.59
2018-05-12T20:08:08.853Z,100487.92
2018-05-12T20:13:04.013Z,100487.75
2018-05-12T20:17:58.570Z,100483.66
2018-05-12T20:22:52.945Z,100491.67
2018-05-12T20:27:47.553Z,100494.63
2018-05-12T20:32:42.172Z,100492.45
2018-05-12T20:37:36.559Z,100489.05
2018-05-12T20:42:30.862Z,100485.00
2018-05-12T20:47:25.357Z,100484.92
2018-05-12T20:52:19.730Z,100485.95
2018-05-12T20:57:14.087Z,100486.10
2018-05-12T21:02:08.770Z,100482.32
2018-05-12T21:07:03.302Z,100479.36
2018-05-12T21:11:57.712Z,100482.11
2018-05-12T21:16:52.229Z,100479.24
2018-05-12T21:21:46.572Z,100479.22
2018-05-12T21:26:41.032Z,100476.27
2018-05-12T21:31:35.407Z,100475.73
2018-05-12T21:36:31.026Z,100473.03
2018-05-12T21:41:25.401Z,100470.50
2018-05-12T21:46:20.540Z,100474.99
2018-05-12T21:51:14.878Z,100476.86
2018-05-12T21:56:09.416Z,100481.02
2018-05-12T22:01:04.787Z,100483.22
2018-05-12T22:05:59.138Z,100481.81
2018-05-12T22:10:54.276Z,100478.70
2018-05-12T22:15:49.400Z,100479.61
2018-05-12T22:20:43.762Z,100475.70
2018-05-12T22:25:38.146Z,100474.56
2018-05-12T22:30:32.607Z,100474.91
2018-05-12T22:35:27.828Z,100471.46
2018-05-12T22:40:22.960Z,100463.86
2018-05-12T22:45:18.102Z,100462.36
2018-05-12T22:50:12.261Z,100454.27
2018-05-12T22:55:07.411Z,100443.99
2018-05-12T23:00:01.770Z,100434.15
2018-05-12T23:04:56.216Z,100443.63
2018-05-12T23:09:50.738Z,100437.66
2018-05-12T23:14:45.257Z,100443.71
2018-05-12T23:19:39.667Z,100441.84
2018-05-12T23:24:34.821Z,100439.60
2018-05-12T23:29:29.949Z,100444.50
2018-05-12T23:34:25.116Z,100448.32
2018-05-12T23:39:19.478Z,100439.52
2018-05-12T23:44:14.599Z,100438.18
2018-05-12T23:49:09.076Z,100434.79
2018-05-12T23:54:03.518Z,100434.79
2018-05-12T23:58:57.896Z,100429.77
